createdAt,value
2022-12-09T00:01:48.577Z,24.03
2022-12-09T00:04:17.534Z,16.23
2022-12-09T00:06:45.307Z,20.27
2022-12-09T00:09:15.273Z,15.10
2022-12-09T00:11:42.961Z,16.83
2022-12-09T00:14:11.518Z,22.23
2022-12-09T00:16:40.914Z,19.30
2022-12-09T00:19:08.790Z,17.90
2022-12-09T00:21:36.946Z,19.23
2022-12-09T00:24:07.666Z,15.57
2022-12-09T00:26:35.626Z,17.97
2022-12-09T00:29:03.645Z,18.73
2022-12-09T00:31:33.707Z,20.50
2022-12-09T00:34:05.019Z,18.20
2022-12-09T00:36:33.099Z,16.83
2022-12-09T00:39:01.399Z,14.57
2022-12-09T00:41:30.131Z,18.10
2022-12-09T00:43:58.407Z,15.80
2022-12-09T00:46:26.534Z,15.98
2022-12-09T00:48:54.334Z,15.90
2022-12-09T00:51:24.784Z,13.67
2022-12-09T00:53:54.774Z,17.80
2022-12-09T00:56:22.976Z,16.10
2022-12-09T00:58:50.670Z,16.77
2022-12-09T01:01:18.516Z,25.15
2022-12-09T01:03:46.096Z,17.17
2022-12-09T01:06:19.137Z,17.40
2022-12-09T01:08:48.309Z,15.33
2022-12-09T01:11:18.537Z,16.27
2022-12-09T01:13:46.155Z,14.73
2022-12-09T01:16:18.084Z,18.97
2022-12-09T01:18:46.066Z,18.20
2022-12-09T01:21:13.957Z,16.80
2022-12-09T01:23:41.895Z,15.73
2022-12-09T01:26:11.341Z,15.60
2022-12-09T01:28:40.466Z,17.17
2022-12-09T01:31:09.296Z,23.38
2022-12-09T01:33:37.072Z,18.43
2022-12-09T01:36:06.248Z,17.47
2022-12-09T01:38:33.770Z,15.87
2022-12-09T01:41:01.535Z,16.63
2022-12-09T01:43:30.543Z,14.70
2022-12-09T01:45:58.166Z,20.10
2022-12-09T01:48:28.374Z,16.30
2022-12-09T01:50:57.857Z,15.00
2022-12-09T01:53:27.598Z,16.07
2022-12-09T01:55:55.533Z,18.00
2022-12-09T01:58:23.128Z,14.30
2022-12-09T02:00:52.185Z,16.97
2022-12-09T02:03:20.022Z,13.70
2022-12-09T02:05:49.205Z,16.77
2022-12-09T02:08:19.025Z,24.43
2022-12-09T02:10:52.223Z,16.08
2022-12-09T02:13:25.088Z,13.55
2022-12-09T02:15:56.528Z,16.13
2022-12-09T02:18:26.927Z,15.63
2022-12-09T02:20:58.817Z,17.17
2022-12-09T02:23:29.984Z,15.90
2022-12-09T02:25:59.134Z,18.08
2022-12-09T02:29:00.246Z,17.70
2022-12-09T02:31:44.823Z,17.97
2022-12-09T02:34:15.387Z,15.37
2022-12-09T02:36:51.001Z,15.97
2022-12-09T02:39:24.224Z,15.93
2022-12-09T02:41:53.515Z,17.70
2022-12-09T02:44:22.571Z,15.90
2022-12-09T02:46:51.167Z,17.27
2022-12-09T02:49:20.620Z,17.80
2022-12-09T02:51:50.539Z,18.37
2022-12-09T02:54:19.740Z,21.33
2022-12-09T02:56:52.884Z,22.40
2022-12-09T02:59:20.691Z,19.37
2022-12-09T03:01:53.031Z,18.73
2022-12-09T03:04:25.665Z,17.77
2022-12-09T03:06:54.462Z,19.40
2022-12-09T03:09:25.183Z,21.60
2022-12-09T03:11:53.752Z,20.67
2022-12-09T03:14:26.074Z,23.73
2022-12-09T03:16:58.015Z,22.23
2022-12-09T03:19:31.391Z,20.40
2022-12-09T03:22:01.656Z,23.43
2022-12-09T03:24:31.870Z,23.07
2022-12-09T03:27:01.180Z,20.70
2022-12-09T03:29:30.458Z,20.00
2022-12-09T03:31:59.528Z,20.40
2022-12-09T03:34:31.738Z,26.65
2022-12-09T03:37:00.044Z,20.53
2022-12-09T03:39:30.910Z,20.67
2022-12-09T03:41:59.625Z,21.37
2022-12-09T03:44:31.279Z,19.07
2022-12-09T03:46:59.476Z,20.75
2022-12-09T03:49:28.474Z,22.58
2022-12-09T03:51:58.557Z,22.13
2022-12-09T03:54:29.767Z,21.47
2022-12-09T03:56:58.679Z,18.70
2022-12-09T03:59:28.690Z,21.93
2022-12-09T04:01:56.339Z,20.30
2022-12-09T04:04:24.384Z,21.00
2022-12-09T04:06:54.608Z,17.40
2022-12-09T04:09:22.539Z,19.93
2022-12-09T04:11:50.116Z,22.20
2022-12-09T04:14:18.341Z,18.40
2022-12-09T04:16:46.368Z,22.25
2022-12-09T04:19:13.987Z,22.90
2022-12-09T04:21:41.908Z,21.27
2022-12-09T04:24:11.502Z,21.30
2022-12-09T04:26:39.414Z,22.60
2022-12-09T04:29:07.027Z,24.30
2022-12-09T04:31:34.981Z,23.40
2022-12-09T04:34:08.367Z,23.77
2022-12-09T04:36:37.262Z,26.63
2022-12-09T04:39:05.396Z,24.40
2022-12-09T04:41:34.445Z,19.20
2022-12-09T04:44:02.467Z,23.33
2022-12-09T04:46:30.324Z,20.45
2022-12-09T04:48:58.272Z,18.43
2022-12-09T04:51:26.057Z,17.47
2022-12-09T04:53:53.862Z,25.63
2022-12-09T04:56:23.653Z,23.20
2022-12-09T04:58:52.641Z,19.73
2022-12-09T05:01:26.666Z,23.00
2022-12-09T05:03:57.872Z,18.87
2022-12-09T05:06:25.969Z,19.47
2022-12-09T05:08:54.068Z,23.50
2022-12-09T05:11:23.896Z,23.03
2022-12-09T05:13:53.944Z,18.97
2022-12-09T05:16:22.475Z,25.73
2022-12-09T05:18:50.754Z,23.50
2022-12-09T05:21:20.233Z,21.77
2022-12-09T05:23:48.653Z,21.00
2022-12-09T05:26:18.549Z,18.20
2022-12-09T05:28:46.385Z,20.30
2022-12-09T05:31:19.853Z,19.27
2022-12-09T05:33:48.676Z,19.73
2022-12-09T05:36:18.948Z,25.47
2022-12-09T05:38:47.036Z,16.77
2022-12-09T05:41:14.746Z,18.40
2022-12-09T05:43:42.431Z,21.17
2022-12-09T05:46:11.474Z,18.95
2022-12-09T05:48:41.505Z,16.67
2022-12-09T05:51:13.209Z,20.90
2022-12-09T05:53:40.812Z,22.97
2022-12-09T05:56:08.520Z,18.80
2022-12-09T05:58:36.240Z,23.80
2022-12-09T06:01:08.065Z,18.73
2022-12-09T06:03:36.705Z,15.37
2022-12-09T06:06:08.410Z,22.33
2022-12-09T06:08:36.329Z,16.53
2022-12-09T06:11:04.840Z,19.87
2022-12-09T06:13:32.733Z,15.80
2022-12-09T06:16:03.680Z,17.17
2022-12-09T06:18:32.124Z,17.63
2022-12-09T06:20:59.796Z,15.10
2022-12-09T06:23:28.791Z,15.07
2022-12-09T06:25:56.655Z,16.37
2022-12-09T06:28:24.489Z,18.80
2022-12-09T06:30:52.410Z,16.40
2022-12-09T06:33:52.384Z,17.90
2022-12-09T06:36:08.594Z,15.33
2022-12-09T06:38:37.764Z,17.30
2022-12-09T06:41:09.891Z,16.83
2022-12-09T06:43:38.278Z,20.40
2022-12-09T06:46:12.972Z,20.43
2022-12-09T06:48:41.104Z,17.05
2022-12-09T06:51:09.585Z,18.50
2022-12-09T06:53:38.705Z,19.00
2022-12-09T06:56:11.898Z,18.43
2022-12-09T06:58:42.046Z,18.43
2022-12-09T07:01:13.635Z,18.70
2022-12-09T07:03:42.891Z,21.43
2022-12-09T07:06:20.448Z,18.00
2022-12-09T07:08:49.478Z,18.60
2022-12-09T07:11:17.552Z,16.53
2022-12-09T07:13:45.481Z,20.80
2022-12-09T07:16:13.432Z,17.27
2022-12-09T07:18:41.425Z,20.20
2022-12-09T07:21:10.054Z,22.63
2022-12-09T07:23:38.326Z,21.63
2022-12-09T07:26:08.096Z,21.83
2022-12-09T07:28:36.437Z,17.67
2022-12-09T07:31:04.587Z,16.17
2022-12-09T07:33:34.595Z,20.23
2022-12-09T07:36:03.105Z,26.50
2022-12-09T07:38:31.034Z,26.10
2022-12-09T07:41:07.614Z,28.07
2022-12-09T07:43:35.417Z,21.67
2022-12-09T07:46:06.781Z,25.10
2022-12-09T07:48:35.168Z,76.10
2022-12-09T07:51:03.481Z,27.93
2022-12-09T07:53:31.523Z,24.93
2022-12-09T07:56:02.448Z,18.20
2022-12-09T07:58:31.414Z,20.20
2022-12-09T08:00:59.132Z,21.63
2022-12-09T08:03:26.936Z,24.80
2022-12-09T08:05:54.839Z,23.77
2022-12-09T08:08:23.020Z,22.00
2022-12-09T08:10:50.959Z,23.10
2022-12-09T08:13:19.990Z,22.03
2022-12-09T08:15:49.405Z,23.03
2022-12-09T08:18:17.328Z,20.97
2022-12-09T08:20:45.449Z,29.00
2022-12-09T08:23:13.108Z,32.78
2022-12-09T08:25:41.158Z,31.23
2022-12-09T08:28:09.515Z,31.07
2022-12-09T08:30:37.836Z,37.63
2022-12-09T08:33:07.249Z,25.20
2022-12-09T08:35:35.040Z,31.77
2022-12-09T08:38:02.926Z,27.23
2022-12-09T08:40:31.001Z,24.92
2022-12-09T08:42:58.740Z,30.38
2022-12-09T08:45:26.468Z,29.00
2022-12-09T08:47:54.847Z,32.57
2022-12-09T08:50:24.260Z,31.13
2022-12-09T08:52:52.628Z,31.48
2022-12-09T08:55:20.305Z,30.80
2022-12-09T08:57:47.802Z,37.70
2022-12-09T09:00:16.900Z,59.05
2022-12-09T09:02:44.825Z,50.28
2022-12-09T09:05:12.690Z,51.30
2022-12-09T09:07:42.736Z,48.10
2022-12-09T09:10:11.890Z,34.92
2022-12-09T09:12:43.477Z,34.07
2022-12-09T09:15:12.644Z,35.00
2022-12-09T09:17:41.406Z,25.55
2022-12-09T09:20:12.542Z,32.47
2022-12-09T09:22:41.728Z,36.90
2022-12-09T09:25:10.808Z,37.50
2022-12-09T09:27:38.553Z,27.27
2022-12-09T09:30:09.486Z,41.20
2022-12-09T09:32:37.336Z,23.93
2022-12-09T09:35:06.419Z,25.33
2022-12-09T09:37:34.341Z,24.60
2022-12-09T09:40:03.444Z,22.52
2022-12-09T09:42:35.770Z,21.17
2022-12-09T09:45:07.486Z,21.70
2022-12-09T09:47:38.838Z,19.27
2022-12-09T09:50:17.838Z,17.27
2022-12-09T09:52:45.994Z,19.52
2022-12-09T09:55:18.450Z,15.27
2022-12-09T09:57:49.241Z,18.13
2022-12-09T10:00:24.476Z,17.43
2022-12-09T10:03:01.247Z,16.60
2022-12-09T10:05:34.488Z,20.57
2022-12-09T10:08:16.811Z,18.87
2022-12-09T10:10:53.734Z,15.10
2022-12-09T10:13:30.795Z,15.50
2022-12-09T10:16:05.670Z,16.73
2022-12-09T10:18:36.996Z,17.40
2022-12-09T10:21:16.371Z,20.10
2022-12-09T10:23:44.998Z,16.20
2022-12-09T10:26:18.585Z,16.90
2022-12-09T10:28:48.539Z,17.40
2022-12-09T10:31:16.585Z,17.37
2022-12-09T10:33:44.776Z,19.93
2022-12-09T10:36:23.441Z,21.93
2022-12-09T10:38:51.077Z,25.10
2022-12-09T10:41:57.765Z,15.53
2022-12-09T10:44:26.856Z,14.83
2022-12-09T10:46:59.062Z,23.07
2022-12-09T10:49:27.396Z,14.57
2022-12-09T10:51:57.371Z,17.63
2022-12-09T10:54:33.629Z,22.70
2022-12-09T10:57:05.735Z,15.82
2022-12-09T10:59:34.061Z,13.47
2022-12-09T11:02:03.916Z,13.30
2022-12-09T11:04:34.153Z,12.23
2022-12-09T11:07:04.983Z,14.55
2022-12-09T11:09:34.953Z,15.27
2022-12-09T11:12:06.861Z,14.00
2022-12-09T11:14:36.697Z,16.00
2022-12-09T11:17:17.616Z,15.25
2022-12-09T11:19:47.912Z,14.47
2022-12-09T11:22:33.728Z,16.80
2022-12-09T11:25:20.179Z,13.77
2022-12-09T11:27:53.802Z,17.50
2022-12-09T11:30:24.613Z,17.67
2022-12-09T11:32:59.045Z,16.07
2022-12-09T11:35:52.719Z,17.20
2022-12-09T11:38:26.486Z,15.57
2022-12-09T11:41:01.382Z,13.77
2022-12-09T11:43:40.634Z,12.87
2022-12-09T11:46:18.804Z,14.70
2022-12-09T11:48:51.061Z,15.70
2022-12-09T11:51:22.203Z,15.70
2022-12-09T11:53:50.095Z,15.00
2022-12-09T11:56:19.711Z,17.48
2022-12-09T11:58:51.605Z,18.80
2022-12-09T12:01:24.780Z,22.80
2022-12-09T12:03:55.108Z,21.20
2022-12-09T12:06:23.850Z,27.40
2022-12-09T12:08:54.973Z,20.02
2022-12-09T12:11:28.217Z,13.02
2022-12-09T12:14:02.515Z,19.20
2022-12-09T12:16:39.302Z,22.43
2022-12-09T12:19:14.971Z,18.10
2022-12-09T12:21:59.224Z,16.98
2022-12-09T12:24:39.233Z,14.63
2022-12-09T12:27:25.119Z,20.50
2022-12-09T12:29:59.955Z,16.33
2022-12-09T12:32:38.518Z,14.10
2022-12-09T12:35:38.545Z,15.55
2022-12-09T12:38:14.245Z,24.50
2022-12-09T12:40:44.653Z,17.90
2022-12-09T12:43:41.934Z,21.13
2022-12-09T12:46:33.323Z,17.80
2022-12-09T12:49:12.464Z,18.80
2022-12-09T12:51:48.440Z,28.60
2022-12-09T12:54:24.567Z,18.50
2022-12-09T12:57:03.737Z,26.97
2022-12-09T12:59:40.840Z,27.10
2022-12-09T13:02:20.451Z,18.42
2022-12-09T13:04:58.560Z,20.63
2022-12-09T13:07:31.390Z,13.90
2022-12-09T13:10:03.630Z,10.15
2022-12-09T13:12:51.677Z,10.00
2022-12-09T13:15:21.140Z,14.77
2022-12-09T13:17:50.634Z,10.80
2022-12-09T13:20:40.046Z,11.67
2022-12-09T13:23:15.723Z,14.27
2022-12-09T13:25:48.109Z,10.77
2022-12-09T13:28:20.850Z,13.23
2022-12-09T13:30:54.415Z,11.57
2022-12-09T13:33:45.775Z,10.40
2022-12-09T13:36:19.138Z,11.32
2022-12-09T13:38:46.813Z,11.83
2022-12-09T13:41:56.571Z,17.45
2022-12-09T13:44:30.218Z,12.65
2022-12-09T13:47:16.041Z,10.00
2022-12-09T13:49:53.951Z,11.37
2022-12-09T13:52:40.067Z,12.87
2022-12-09T13:55:19.879Z,13.23
2022-12-09T13:57:52.111Z,12.33
2022-12-09T14:00:20.348Z,13.87
2022-12-09T14:02:55.219Z,10.17
2022-12-09T14:05:25.972Z,12.10
2022-12-09T14:07:56.159Z,9.73
2022-12-09T14:10:38.356Z,11.80
2022-12-09T14:13:21.813Z,11.57
2022-12-09T14:16:10.810Z,11.37
2022-12-09T14:18:43.004Z,9.90
2022-12-09T14:21:42.462Z,8.43
2022-12-09T14:24:32.614Z,10.60
2022-12-09T14:27:13.633Z,10.43
2022-12-09T14:29:52.745Z,10.07
2022-12-09T14:32:22.383Z,10.03
2022-12-09T14:35:00.936Z,9.10
2022-12-09T14:37:43.941Z,34.27
2022-12-09T14:40:24.272Z,21.63
2022-12-09T14:42:56.015Z,14.43
2022-12-09T14:45:36.964Z,19.67
2022-12-09T14:48:10.457Z,26.40
2022-12-09T14:50:38.984Z,16.53
2022-12-09T14:53:25.186Z,12.53
2022-12-09T14:55:53.140Z,12.33
2022-12-09T14:58:33.746Z,9.90
2022-12-09T15:01:09.802Z,10.07
2022-12-09T15:03:45.697Z,16.77
2022-12-09T15:06:18.249Z,12.03
2022-12-09T15:08:47.830Z,13.87
2022-12-09T15:11:20.257Z,10.70
2022-12-09T15:14:32.123Z,10.30
2022-12-09T15:17:09.825Z,14.50
2022-12-09T15:22:30.178Z,10.47
2022-12-09T15:24:59.632Z,12.93
2022-12-09T15:27:28.863Z,10.87
2022-12-09T15:29:56.473Z,12.37
2022-12-09T15:32:26.662Z,16.20
2022-12-09T15:35:01.802Z,11.57
2022-12-09T15:37:31.646Z,12.80
2022-12-09T15:40:04.620Z,13.13
2022-12-09T15:42:41.852Z,12.60
2022-12-09T15:45:16.592Z,13.03
2022-12-09T15:48:13.874Z,11.57
2022-12-09T15:51:05.691Z,13.97
2022-12-09T15:54:19.053Z,13.77
2022-12-09T15:56:52.733Z,11.60
2022-12-09T15:59:43.957Z,10.88
2022-12-09T16:02:18.610Z,11.50
2022-12-09T16:04:59.387Z,12.93
2022-12-09T16:08:52.137Z,13.60
2022-12-09T16:11:12.732Z,14.67
2022-12-09T16:13:59.970Z,13.50
2022-12-09T16:16:36.627Z,13.30
2022-12-09T16:19:23.460Z,15.60
2022-12-09T16:21:55.266Z,12.77
2022-12-09T16:25:13.035Z,12.37
2022-12-09T16:27:57.073Z,13.13
2022-12-09T16:30:29.684Z,13.10
2022-12-09T16:32:58.914Z,13.13
2022-12-09T16:35:28.305Z,20.37
2022-12-09T16:38:14.642Z,17.90
2022-12-09T16:41:04.526Z,14.23
2022-12-09T16:43:32.888Z,14.90
2022-12-09T16:46:03.330Z,12.70
2022-12-09T16:48:31.712Z,14.02
2022-12-09T16:51:04.916Z,13.53
2022-12-09T16:53:33.829Z,12.10
2022-12-09T16:56:02.711Z,12.80
2022-12-09T16:58:31.454Z,11.90
2022-12-09T17:01:01.864Z,22.63
2022-12-09T17:03:36.138Z,18.97
2022-12-09T17:06:03.901Z,14.47
2022-12-09T17:08:32.058Z,11.23
2022-12-09T17:10:59.647Z,12.53
2022-12-09T17:13:27.428Z,10.00
2022-12-09T17:15:58.345Z,11.63
2022-12-09T17:18:29.160Z,9.43
2022-12-09T17:21:04.032Z,11.80
2022-12-09T17:23:39.126Z,10.05
2022-12-09T17:26:09.433Z,16.48
2022-12-09T17:28:37.716Z,14.25
2022-12-09T17:31:08.844Z,10.60
2022-12-09T17:33:38.476Z,13.60
2022-12-09T17:38:38.278Z,12.38
2022-12-09T17:41:07.283Z,11.90
2022-12-09T17:43:35.795Z,11.90
2022-12-09T17:46:04.717Z,10.50
2022-12-09T17:48:33.628Z,10.48
2022-12-09T17:51:07.841Z,11.10
2022-12-09T17:53:36.911Z,13.88
2022-12-09T17:56:08.801Z,17.70
2022-12-09T17:58:36.879Z,11.55
2022-12-09T18:01:04.779Z,10.18
2022-12-09T18:03:54.993Z,11.43
2022-12-09T18:06:22.897Z,12.68
2022-12-09T18:08:50.583Z,12.13
2022-12-09T18:11:18.324Z,12.37
2022-12-09T18:13:46.744Z,10.52
2022-12-09T18:16:15.717Z,10.65
2022-12-09T18:18:43.865Z,10.15
2022-12-09T18:21:16.004Z,16.00
2022-12-09T18:23:45.641Z,10.57
2022-12-09T18:26:15.181Z,9.68
2022-12-09T18:28:49.419Z,11.88
2022-12-09T18:31:19.099Z,14.50
2022-12-09T18:33:49.736Z,12.50
2022-12-09T18:36:21.750Z,14.07
2022-12-09T18:38:50.996Z,13.88
2022-12-09T18:41:21.157Z,13.05
2022-12-09T18:43:50.544Z,14.60
2022-12-09T18:46:25.003Z,12.00
2022-12-09T18:48:56.632Z,12.10
2022-12-09T18:51:27.398Z,11.38
2022-12-09T18:53:57.629Z,13.23
2022-12-09T18:56:25.671Z,14.90
2022-12-09T18:59:09.655Z,17.13
2022-12-09T19:01:41.561Z,15.05
2022-12-09T19:04:13.639Z,13.05
2022-12-09T19:06:43.496Z,15.40
2022-12-09T19:09:13.735Z,16.20
2022-12-09T19:11:43.148Z,13.98
2022-12-09T19:14:11.583Z,17.90
2022-12-09T19:17:59.558Z,23.58
2022-12-09T19:20:05.871Z,17.85
2022-12-09T19:22:33.914Z,18.00
2022-12-09T19:25:03.263Z,28.85
2022-12-09T19:27:30.998Z,19.13
2022-12-09T19:29:58.660Z,17.25
2022-12-09T19:32:52.094Z,33.60
2022-12-09T19:35:56.226Z,12.90
2022-12-09T19:38:12.364Z,14.05
2022-12-09T19:40:44.016Z,16.00
2022-12-09T19:43:13.015Z,16.67
2022-12-09T19:45:40.968Z,30.67
2022-12-09T19:48:10.209Z,17.27
2022-12-09T19:50:37.749Z,17.75
2022-12-09T19:53:05.284Z,18.98
2022-12-09T19:55:35.648Z,15.20
2022-12-09T19:58:04.831Z,17.48
2022-12-09T20:00:36.827Z,17.63
2022-12-09T20:03:07.604Z,14.33
2022-12-09T20:05:35.405Z,12.35
2022-12-09T20:08:03.084Z,15.77
2022-12-09T20:10:33.773Z,14.23
2022-12-09T20:13:01.496Z,16.55
2022-12-09T20:15:30.582Z,15.77
2022-12-09T20:17:58.452Z,19.45
2022-12-09T20:20:26.050Z,18.98
2022-12-09T20:22:53.767Z,16.05
2022-12-09T20:25:21.495Z,16.23
2022-12-09T20:27:49.113Z,16.10
2022-12-09T20:30:17.711Z,15.85
2022-12-09T20:32:48.456Z,17.85
2022-12-09T20:35:16.293Z,18.85
2022-12-09T20:37:43.934Z,16.55
2022-12-09T20:40:12.428Z,20.15
2022-12-09T20:42:40.263Z,19.58
2022-12-09T20:45:09.229Z,19.67
2022-12-09T20:47:37.085Z,20.25
2022-12-09T20:50:07.587Z,18.27
2022-12-09T20:52:35.551Z,16.95
2022-12-09T20:55:03.338Z,20.60
2022-12-09T20:57:31.100Z,19.25
2022-12-09T20:59:58.752Z,19.80
2022-12-09T21:02:26.598Z,23.80
2022-12-09T21:04:54.321Z,21.42
2022-12-09T21:07:23.356Z,20.17
2022-12-09T21:09:51.065Z,24.60
2022-12-09T21:12:21.892Z,18.55
2022-12-09T21:14:49.680Z,19.93
2022-12-09T21:17:17.524Z,19.45
2022-12-09T21:19:45.105Z,23.43
2022-12-09T21:22:12.787Z,23.30
2022-12-09T21:24:41.887Z,20.27
2022-12-09T21:27:09.644Z,18.73
2022-12-09T21:29:37.762Z,17.80
2022-12-09T21:32:05.622Z,17.77
2022-12-09T21:34:33.405Z,24.10
2022-12-09T21:37:01.999Z,20.00
2022-12-09T21:39:29.764Z,15.98
2022-12-09T21:41:58.881Z,21.43
2022-12-09T21:44:27.410Z,20.70
2022-12-09T21:46:55.198Z,35.30
2022-12-09T21:49:22.914Z,19.45
2022-12-09T21:51:50.555Z,28.67
2022-12-09T21:54:18.228Z,19.27
2022-12-09T21:56:45.891Z,22.70
2022-12-09T21:59:15.094Z,24.60
2022-12-09T22:01:43.874Z,19.55
2022-12-09T22:04:13.074Z,21.20
2022-12-09T22:06:40.835Z,17.98
2022-12-09T22:09:08.915Z,17.15
2022-12-09T22:11:37.935Z,18.70
2022-12-09T22:14:06.510Z,15.80
2022-12-09T22:16:38.304Z,18.65
2022-12-09T22:19:08.265Z,18.98
2022-12-09T22:21:36.863Z,19.58
2022-12-09T22:24:06.887Z,20.70
2022-12-09T22:26:34.699Z,20.25
2022-12-09T22:29:03.988Z,21.73
2022-12-09T22:31:33.993Z,20.00
2022-12-09T22:34:04.770Z,18.42
2022-12-09T22:36:33.104Z,16.05
2022-12-09T22:39:00.981Z,16.98
2022-12-09T22:41:29.845Z,18.77
2022-12-09T22:43:57.998Z,16.67
2022-12-09T22:46:27.591Z,23.48
2022-12-09T22:48:55.619Z,18.23
2022-12-09T22:52:31.010Z,21.30
2022-12-09T22:54:56.959Z,16.75
2022-12-09T22:57:24.611Z,22.02
2022-12-09T22:59:52.179Z,17.13
2022-12-09T23:02:19.916Z,18.30
2022-12-09T23:04:47.595Z,19.15
2022-12-09T23:07:16.577Z,17.83
2022-12-09T23:09:44.252Z,18.13
2022-12-09T23:12:11.955Z,20.42
2022-12-09T23:14:39.566Z,23.38
2022-12-09T23:17:07.139Z,19.80
2022-12-09T23:19:35.058Z,17.15
2022-12-09T23:22:03.463Z,18.27
2022-12-09T23:24:44.156Z,20.80
2022-12-09T23:27:11.855Z,20.87
2022-12-09T23:29:41.723Z,21.20
2022-12-09T23:32:13.062Z,19.40
2022-12-09T23:34:41.514Z,19.30
2022-12-09T23:37:09.198Z,22.42
2022-12-09T23:39:38.761Z,20.33
2022-12-09T23:42:07.278Z,20.20
2022-12-09T23:44:36.691Z,19.73
2022-12-09T23:47:05.258Z,16.23
2022-12-09T23:49:33.370Z,18.48
2022-12-09T23:52:01.014Z,20.77
2022-12-09T23:54:28.797Z,22.15
2022-12-09T23:56:57.766Z,18.10
2022-12-09T23:59:25.750Z,20.60
